createdAt,value
2022-08-30T00:01:31.423Z,68.90
2022-08-30T00:04:00.407Z,69.00
2022-08-30T00:06:29.820Z,69.00
2022-08-30T00:08:57.191Z,69.20
2022-08-30T00:11:28.115Z,69.20
2022-08-30T00:13:58.006Z,69.20
2022-08-30T00:16:26.608Z,68.40
2022-08-30T00:18:54.389Z,69.00
2022-08-30T00:21:22.630Z,69.10
2022-08-30T00:23:49.612Z,69.30
2022-08-30T00:26:17.637Z,69.30
2022-08-30T00:28:44.629Z,69.30
2022-08-30T00:31:15.374Z,69.40
2022-08-30T00:33:42.973Z,69.50
2022-08-30T00:36:09.945Z,69.50
2022-08-30T00:38:36.858Z,69.50
2022-08-30T00:41:03.967Z,69.50
2022-08-30T00:43:34.130Z,69.50
2022-08-30T00:46:08.244Z,69.40
2022-08-30T00:48:44.313Z,69.40
2022-08-30T00:51:14.876Z,69.40
2022-08-30T00:53:49.122Z,69.40
2022-08-30T00:56:17.969Z,69.30
2022-08-30T00:58:50.207Z,69.60
2022-08-30T01:01:18.334Z,69.40
2022-08-30T01:03:46.129Z,69.60
2022-08-30T01:06:15.782Z,69.60
2022-08-30T01:08:45.283Z,69.60
2022-08-30T01:11:20.226Z,69.70
2022-08-30T01:13:48.745Z,69.70
2022-08-30T01:16:16.309Z,69.80
2022-08-30T01:18:44.681Z,69.80
2022-08-30T01:21:23.071Z,69.80
2022-08-30T01:23:53.930Z,69.90
2022-08-30T01:26:22.502Z,69.80
2022-08-30T01:28:54.904Z,69.90
2022-08-30T01:31:22.460Z,70.00
2022-08-30T01:33:49.958Z,70.10
2022-08-30T01:36:19.044Z,70.10
2022-08-30T01:38:54.721Z,70.10
2022-08-30T01:41:30.154Z,70.10
2022-08-30T01:44:00.417Z,70.10
2022-08-30T01:46:38.550Z,70.20
2022-08-30T01:49:10.846Z,70.20
2022-08-30T01:51:39.027Z,70.20
2022-08-30T01:54:06.591Z,70.20
2022-08-30T01:56:34.300Z,70.20
2022-08-30T01:59:03.109Z,70.30
2022-08-30T02:01:34.038Z,70.30
2022-08-30T02:04:01.204Z,70.30
2022-08-30T02:06:28.164Z,70.40
2022-08-30T02:08:55.395Z,70.40
2022-08-30T02:11:22.647Z,70.60
2022-08-30T02:13:51.012Z,70.50
2022-08-30T02:16:23.732Z,70.70
2022-08-30T02:18:56.189Z,70.70
2022-08-30T02:21:24.352Z,70.70
2022-08-30T02:23:52.256Z,70.70
2022-08-30T02:26:19.504Z,70.90
2022-08-30T02:28:49.479Z,70.90
2022-08-30T02:31:19.508Z,70.90
2022-08-30T02:33:52.421Z,70.30
2022-08-30T02:36:21.763Z,70.80
2022-08-30T02:38:50.322Z,70.90
2022-08-30T02:41:18.717Z,70.90
2022-08-30T02:43:46.822Z,71.00
2022-08-30T02:46:14.370Z,71.00
2022-08-30T02:48:41.654Z,71.00
2022-08-30T02:51:14.337Z,71.00
2022-08-30T02:53:43.924Z,70.90
2022-08-30T02:56:13.671Z,71.00
2022-08-30T02:58:42.563Z,71.10
2022-08-30T03:01:13.527Z,71.10
2022-08-30T03:03:44.080Z,71.20
2022-08-30T03:06:11.409Z,71.30
2022-08-30T03:08:38.345Z,71.30
2022-08-30T03:11:06.326Z,71.30
2022-08-30T03:13:33.451Z,71.30
2022-08-30T03:16:00.378Z,71.40
2022-08-30T03:18:27.263Z,71.40
2022-08-30T03:20:55.033Z,71.40
2022-08-30T03:23:23.744Z,71.50
2022-08-30T03:25:51.469Z,71.50
2022-08-30T03:28:18.395Z,71.50
2022-08-30T03:30:45.454Z,71.50
2022-08-30T03:33:12.366Z,71.50
2022-08-30T03:35:39.214Z,71.50
2022-08-30T03:38:06.412Z,71.50
2022-08-30T03:40:33.631Z,71.40
2022-08-30T03:43:01.042Z,71.40
2022-08-30T03:45:28.118Z,71.80
2022-08-30T03:47:55.388Z,71.30
2022-08-30T03:50:22.603Z,71.30
2022-08-30T03:52:49.490Z,71.30
2022-08-30T03:55:16.948Z,71.30
2022-08-30T03:57:44.013Z,71.40
2022-08-30T04:00:13.568Z,71.40
2022-08-30T04:02:41.708Z,71.40
2022-08-30T04:05:11.197Z,71.40
2022-08-30T04:07:39.718Z,71.40
2022-08-30T04:10:09.533Z,71.50
2022-08-30T04:12:38.459Z,71.50
2022-08-30T04:15:06.473Z,71.50
2022-08-30T04:17:33.595Z,71.50
2022-08-30T04:20:00.510Z,71.60
2022-08-30T04:22:27.392Z,71.70
2022-08-30T04:24:54.341Z,71.70
2022-08-30T04:27:21.298Z,71.80
2022-08-30T04:29:48.748Z,71.90
2022-08-30T04:32:16.714Z,72.00
2022-08-30T04:34:44.148Z,72.10
2022-08-30T04:37:11.146Z,72.20
2022-08-30T04:39:38.746Z,72.20
2022-08-30T04:42:06.941Z,72.20
2022-08-30T04:44:33.948Z,72.30
2022-08-30T04:47:00.862Z,72.30
2022-08-30T04:49:27.910Z,72.40
2022-08-30T04:51:55.779Z,72.40
2022-08-30T04:54:22.792Z,72.40
2022-08-30T04:56:49.649Z,72.50
2022-08-30T04:59:16.817Z,72.40
2022-08-30T05:01:45.449Z,72.40
2022-08-30T05:04:14.704Z,72.40
2022-08-30T05:06:42.116Z,72.50
2022-08-30T05:09:09.113Z,72.60
2022-08-30T05:11:36.931Z,72.50
2022-08-30T05:14:03.847Z,72.70
2022-08-30T05:16:30.738Z,72.80
2022-08-30T05:18:58.020Z,72.90
2022-08-30T05:21:27.667Z,72.90
2022-08-30T05:23:58.253Z,73.00
2022-08-30T05:26:32.967Z,73.10
2022-08-30T05:29:00.388Z,73.10
2022-08-30T05:31:35.646Z,73.20
2022-08-30T05:34:03.740Z,73.10
2022-08-30T05:36:35.116Z,73.30
2022-08-30T05:39:02.132Z,73.90
2022-08-30T05:41:33.187Z,73.50
2022-08-30T05:44:02.848Z,73.40
2022-08-30T05:49:07.509Z,73.50
2022-08-30T05:51:43.026Z,73.40
2022-08-30T05:54:13.070Z,73.20
2022-08-30T05:56:42.656Z,73.20
2022-08-30T05:59:09.882Z,73.10
2022-08-30T06:01:42.224Z,73.00
2022-08-30T06:04:12.709Z,73.00
2022-08-30T06:06:43.813Z,73.10
2022-08-30T06:09:13.887Z,73.10
2022-08-30T06:11:41.884Z,73.20
2022-08-30T06:14:08.954Z,73.20
2022-08-30T06:16:38.919Z,73.30
2022-08-30T06:19:08.648Z,73.10
2022-08-30T06:21:37.560Z,73.30
2022-08-30T06:24:07.463Z,73.30
2022-08-30T06:26:43.341Z,73.30
2022-08-30T06:29:14.443Z,73.10
2022-08-30T06:31:41.816Z,73.30
2022-08-30T06:34:08.817Z,73.20
2022-08-30T06:36:36.411Z,73.20
2022-08-30T06:39:03.971Z,73.20
2022-08-30T06:41:34.063Z,73.20
2022-08-30T06:44:04.172Z,73.00
2022-08-30T06:46:35.436Z,73.00
2022-08-30T06:49:05.092Z,73.00
2022-08-30T06:51:39.786Z,73.60
2022-08-30T06:54:10.783Z,72.20
2022-08-30T06:56:55.221Z,72.90
2022-08-30T06:59:27.036Z,72.80
2022-08-30T07:01:55.270Z,72.70
2022-08-30T07:04:22.285Z,72.60
2022-08-30T07:06:49.139Z,72.40
2022-08-30T07:09:16.259Z,72.40
2022-08-30T07:11:43.456Z,71.90
2022-08-30T07:14:10.695Z,71.80
2022-08-30T07:16:37.629Z,71.50
2022-08-30T07:19:06.345Z,71.40
2022-08-30T07:21:40.609Z,70.90
2022-08-30T07:24:09.876Z,69.80
2022-08-30T07:26:42.608Z,70.60
2022-08-30T07:29:10.283Z,70.10
2022-08-30T07:31:37.602Z,70.10
2022-08-30T07:34:07.379Z,70.10
2022-08-30T07:36:36.415Z,69.80
2022-08-30T07:39:05.556Z,69.80
2022-08-30T07:41:36.365Z,69.50
2022-08-30T07:44:03.734Z,69.00
2022-08-30T07:46:30.652Z,69.00
2022-08-30T07:49:00.519Z,68.40
2022-08-30T07:51:29.799Z,68.00
2022-08-30T07:53:57.449Z,67.80
2022-08-30T07:56:25.567Z,67.90
2022-08-30T07:58:53.451Z,67.70
2022-08-30T08:01:23.106Z,67.70
2022-08-30T08:03:52.911Z,67.80
2022-08-30T08:06:22.199Z,68.40
2022-08-30T08:08:50.682Z,69.10
2022-08-30T08:11:29.306Z,69.40
2022-08-30T08:13:58.552Z,67.40
2022-08-30T08:16:29.044Z,69.80
2022-08-30T08:18:56.419Z,68.60
2022-08-30T08:21:26.063Z,68.80
2022-08-30T08:23:54.079Z,67.80
2022-08-30T08:26:21.453Z,67.60
2022-08-30T08:28:48.591Z,66.20
2022-08-30T08:31:28.748Z,64.70
2022-08-30T08:34:02.735Z,59.80
2022-08-30T08:36:31.292Z,62.80
2022-08-30T08:38:59.132Z,61.90
2022-08-30T08:42:05.735Z,60.50
2022-08-30T08:45:00.629Z,56.30
2022-08-30T08:47:56.139Z,56.30
2022-08-30T08:50:24.844Z,54.00
2022-08-30T08:53:45.364Z,57.50
2022-08-30T08:56:17.399Z,52.20
2022-08-30T08:58:47.608Z,56.40
2022-08-30T09:01:20.603Z,55.60
2022-08-30T09:03:48.520Z,53.90
2022-08-30T09:06:52.342Z,54.20
2022-08-30T09:09:26.701Z,53.50
2022-08-30T09:11:53.961Z,51.20
2022-08-30T09:14:30.133Z,52.50
2022-08-30T09:17:05.961Z,50.50
2022-08-30T09:19:45.319Z,50.60
2022-08-30T09:22:32.675Z,50.70
2022-08-30T09:25:20.444Z,48.70
2022-08-30T09:27:50.326Z,46.80
2022-08-30T09:30:31.337Z,49.50
2022-08-30T09:33:18.717Z,45.90
2022-08-30T09:35:49.693Z,45.80
2022-08-30T09:38:30.028Z,47.60
2022-08-30T09:41:02.400Z,44.50
2022-08-30T09:43:34.722Z,46.70
2022-08-30T09:46:02.025Z,44.40
2022-08-30T09:48:46.108Z,46.40
2022-08-30T09:51:15.864Z,43.60
2022-08-30T09:54:18.746Z,45.70
2022-08-30T09:57:17.697Z,47.60
2022-08-30T10:00:21.341Z,44.30
2022-08-30T10:03:26.292Z,42.10
2022-08-30T10:06:24.780Z,40.20
2022-08-30T10:09:27.647Z,40.30
2022-08-30T10:12:29.861Z,40.00
2022-08-30T10:15:25.003Z,40.50
2022-08-30T10:18:05.374Z,40.10
2022-08-30T10:21:09.130Z,39.90
2022-08-30T10:23:44.615Z,41.10
2022-08-30T10:26:44.934Z,42.60
2022-08-30T10:29:25.472Z,39.30
2022-08-30T10:32:19.032Z,38.20
2022-08-30T10:35:01.682Z,39.00
2022-08-30T10:37:35.911Z,38.20
2022-08-30T10:40:45.558Z,38.90
2022-08-30T10:43:43.018Z,37.50
2022-08-30T10:46:22.060Z,36.50
2022-08-30T10:48:49.148Z,36.30
2022-08-30T10:51:49.971Z,38.90
2022-08-30T10:54:34.749Z,37.50
2022-08-30T10:57:01.588Z,37.20
2022-08-30T10:59:29.114Z,39.70
2022-08-30T11:02:22.563Z,39.30
2022-08-30T11:05:08.193Z,36.60
2022-08-30T11:07:52.449Z,39.40
2022-08-30T11:11:05.539Z,39.40
2022-08-30T11:13:41.437Z,38.90
2022-08-30T11:16:15.656Z,40.30
2022-08-30T11:18:53.995Z,40.80
2022-08-30T11:21:32.750Z,38.20
2022-08-30T11:24:11.396Z,41.60
2022-08-30T11:26:50.688Z,41.20
2022-08-30T11:29:26.955Z,38.80
2022-08-30T11:32:21.014Z,38.10
2022-08-30T11:34:47.781Z,39.10
2022-08-30T11:37:37.267Z,40.40
2022-08-30T11:40:22.755Z,38.90
2022-08-30T11:42:53.558Z,40.20
2022-08-30T11:45:25.197Z,39.90
2022-08-30T11:48:07.371Z,39.80
2022-08-30T11:50:58.585Z,39.30
2022-08-30T11:54:03.909Z,40.30
2022-08-30T11:56:47.451Z,39.70
2022-08-30T11:59:38.393Z,40.90
2022-08-30T12:02:08.233Z,40.70
2022-08-30T12:04:47.109Z,42.00
2022-08-30T12:08:21.151Z,41.80
2022-08-30T12:10:59.427Z,40.90
2022-08-30T12:13:37.082Z,42.20
2022-08-30T12:16:36.484Z,40.90
2022-08-30T12:19:20.964Z,41.00
2022-08-30T12:22:08.250Z,41.50
2022-08-30T12:24:46.414Z,41.40
2022-08-30T12:27:34.043Z,42.20
2022-08-30T12:30:08.662Z,42.30
2022-08-30T12:32:47.360Z,43.70
2022-08-30T12:35:28.319Z,42.20
2022-08-30T12:38:06.973Z,41.90
2022-08-30T12:40:37.250Z,41.60
2022-08-30T12:43:17.267Z,43.00
2022-08-30T12:45:50.842Z,43.20
2022-08-30T12:48:20.290Z,42.50
2022-08-30T12:50:57.859Z,42.70
2022-08-30T12:53:39.298Z,41.60
2022-08-30T12:56:15.107Z,41.70
2022-08-30T12:58:53.399Z,41.90
2022-08-30T13:01:36.891Z,42.90
2022-08-30T13:04:27.913Z,41.00
2022-08-30T13:07:02.307Z,41.70
2022-08-30T13:09:39.973Z,41.00
2022-08-30T13:12:23.716Z,41.70
2022-08-30T13:14:53.627Z,41.70
2022-08-30T13:17:27.373Z,42.90
2022-08-30T13:20:11.789Z,41.40
2022-08-30T13:23:09.483Z,41.60
2022-08-30T13:25:39.802Z,42.10
2022-08-30T13:28:08.049Z,43.50
2022-08-30T13:30:35.817Z,43.80
2022-08-30T13:33:03.106Z,43.70
2022-08-30T13:35:31.261Z,43.50
2022-08-30T13:38:01.868Z,43.30
2022-08-30T13:40:28.877Z,42.60
2022-08-30T13:42:56.741Z,42.50
2022-08-30T13:45:41.512Z,42.00
2022-08-30T13:48:10.830Z,41.80
2022-08-30T13:50:38.549Z,41.70
2022-08-30T13:53:05.766Z,41.40
2022-08-30T13:55:33.949Z,41.40
2022-08-30T13:58:00.835Z,41.50
2022-08-30T14:00:28.568Z,41.60
2022-08-30T14:02:57.525Z,41.20
2022-08-30T14:08:48.759Z,40.60
2022-08-30T14:11:21.051Z,39.40
2022-08-30T14:16:42.668Z,41.00
2022-08-30T14:19:12.537Z,40.80
2022-08-30T14:21:39.606Z,40.90
2022-08-30T14:24:07.502Z,41.00
2022-08-30T14:26:48.458Z,41.20
2022-08-30T14:29:22.748Z,39.30
2022-08-30T14:31:51.576Z,41.10
2022-08-30T14:34:19.073Z,41.20
2022-08-30T14:36:47.336Z,41.20
2022-08-30T14:39:19.061Z,41.00
2022-08-30T14:41:50.606Z,40.80
2022-08-30T14:44:20.834Z,40.10
2022-08-30T14:46:48.829Z,40.10
2022-08-30T14:49:19.011Z,40.00
2022-08-30T14:51:48.471Z,39.80
2022-08-30T14:54:22.161Z,39.60
2022-08-30T14:56:49.002Z,38.20
2022-08-30T14:59:16.841Z,38.40
2022-08-30T15:01:44.491Z,37.70
2022-08-30T15:04:14.116Z,37.00
2022-08-30T15:06:45.111Z,36.90
2022-08-30T15:09:18.579Z,36.20
2022-08-30T15:11:51.574Z,35.90
2022-08-30T15:14:18.793Z,35.90
2022-08-30T15:16:45.824Z,35.90
2022-08-30T15:19:13.668Z,35.10
2022-08-30T15:21:45.359Z,35.20
2022-08-30T15:24:16.812Z,34.70
2022-08-30T15:26:44.326Z,34.60
2022-08-30T15:29:16.239Z,34.60
2022-08-30T15:31:44.596Z,33.20
2022-08-30T15:34:15.528Z,33.20
2022-08-30T15:36:44.811Z,32.80
2022-08-30T15:39:12.625Z,32.10
2022-08-30T15:41:40.558Z,33.60
2022-08-30T15:44:12.428Z,32.40
2022-08-30T15:46:43.896Z,31.90
2022-08-30T15:49:17.138Z,31.40
2022-08-30T15:51:48.402Z,31.70
2022-08-30T15:54:22.640Z,31.40
2022-08-30T15:56:50.004Z,30.20
2022-08-30T15:59:17.587Z,30.50
2022-08-30T16:01:47.539Z,30.60
2022-08-30T16:04:18.650Z,30.70
2022-08-30T16:06:46.658Z,30.90
2022-08-30T16:09:13.908Z,30.80
2022-08-30T16:11:41.759Z,30.90
2022-08-30T16:14:09.844Z,30.60
2022-08-30T16:16:39.876Z,30.20
2022-08-30T16:19:09.530Z,30.00
2022-08-30T16:21:37.635Z,29.80
2022-08-30T16:24:07.597Z,29.80
2022-08-30T16:26:38.086Z,29.60
2022-08-30T16:29:07.408Z,29.80
2022-08-30T16:31:37.048Z,29.70
2022-08-30T16:34:04.665Z,29.60
2022-08-30T16:36:33.187Z,30.00
2022-08-30T16:39:00.706Z,30.50
2022-08-30T16:41:28.407Z,31.00
2022-08-30T16:43:56.619Z,31.40
2022-08-30T16:46:27.887Z,31.70
2022-08-30T16:48:58.648Z,31.60
2022-08-30T16:51:29.667Z,31.30
2022-08-30T16:54:00.063Z,31.10
2022-08-30T16:56:31.573Z,31.60
2022-08-30T16:59:02.185Z,31.60
2022-08-30T17:01:34.838Z,31.90
2022-08-30T17:04:03.586Z,32.10
2022-08-30T17:06:30.835Z,32.30
2022-08-30T17:08:59.380Z,32.40
2022-08-30T17:11:27.309Z,32.60
2022-08-30T17:13:54.428Z,32.60
2022-08-30T17:16:28.180Z,33.00
2022-08-30T17:19:00.611Z,33.20
2022-08-30T17:21:29.760Z,33.50
2022-08-30T17:24:01.534Z,33.70
2022-08-30T17:26:31.228Z,34.00
2022-08-30T17:28:58.435Z,34.20
2022-08-30T17:31:29.128Z,34.60
2022-08-30T17:34:02.962Z,34.90
2022-08-30T17:36:36.644Z,35.30
2022-08-30T17:39:11.119Z,35.60
2022-08-30T17:41:43.333Z,35.90
2022-08-30T17:44:15.289Z,36.20
2022-08-30T17:46:42.322Z,36.50
2022-08-30T17:49:10.548Z,36.90
2022-08-30T17:51:40.882Z,37.30
2022-08-30T17:54:09.799Z,37.50
2022-08-30T17:56:36.760Z,37.80
2022-08-30T17:59:05.991Z,38.20
2022-08-30T18:01:33.600Z,38.60
2022-08-30T18:04:02.018Z,39.10
2022-08-30T18:06:33.336Z,39.30
2022-08-30T18:09:03.052Z,39.50
2022-08-30T18:11:30.066Z,40.00
2022-08-30T18:13:57.317Z,40.30
2022-08-30T18:16:26.594Z,40.70
2022-08-30T18:18:57.346Z,41.10
2022-08-30T18:21:25.682Z,41.50
2022-08-30T18:23:56.267Z,41.80
2022-08-30T18:26:24.505Z,41.80
2022-08-30T18:28:52.447Z,41.80
2022-08-30T18:31:19.751Z,42.20
2022-08-30T18:33:47.415Z,42.40
2022-08-30T18:36:14.811Z,42.50
2022-08-30T18:38:42.756Z,43.00
2022-08-30T18:41:15.639Z,43.10
2022-08-30T18:43:44.814Z,43.70
2022-08-30T18:46:16.793Z,43.70
2022-08-30T18:48:46.438Z,44.00
2022-08-30T18:51:21.272Z,44.40
2022-08-30T18:53:49.382Z,44.70
2022-08-30T18:56:17.206Z,44.90
2022-08-30T18:58:47.500Z,44.80
2022-08-30T19:01:20.725Z,44.90
2022-08-30T19:03:49.920Z,45.00
2022-08-30T19:06:19.555Z,45.30
2022-08-30T19:08:47.163Z,45.40
2022-08-30T19:11:16.332Z,45.70
2022-08-30T19:13:43.803Z,45.70
2022-08-30T19:18:57.964Z,46.20
2022-08-30T19:21:25.060Z,46.40
2022-08-30T19:23:55.081Z,46.50
2022-08-30T19:26:22.330Z,46.60
2022-08-30T19:28:49.292Z,46.90
2022-08-30T19:31:16.204Z,47.00
2022-08-30T19:33:44.275Z,47.10
2022-08-30T19:36:11.247Z,47.30
2022-08-30T19:38:38.493Z,47.60
2022-08-30T19:41:05.652Z,47.70
2022-08-30T19:43:32.688Z,48.10
2022-08-30T19:46:00.649Z,48.30
2022-08-30T19:48:32.814Z,48.50
2022-08-30T19:51:08.062Z,48.80
2022-08-30T19:53:35.096Z,49.00
2022-08-30T19:56:02.340Z,48.90
2022-08-30T19:58:30.313Z,49.00
2022-08-30T20:01:00.819Z,49.10
2022-08-30T20:03:28.013Z,49.40
2022-08-30T20:05:54.938Z,47.90
2022-08-30T20:08:22.516Z,49.10
2022-08-30T20:10:49.380Z,49.40
2022-08-30T20:13:19.320Z,49.50
2022-08-30T20:15:56.965Z,49.50
2022-08-30T20:18:25.976Z,50.30
2022-08-30T20:20:53.453Z,49.80
2022-08-30T20:23:24.155Z,50.00
2022-08-30T20:24:32.316Z,46.10
2022-08-30T20:25:55.398Z,50.30
2022-08-30T20:28:25.006Z,50.40
2022-08-30T20:30:53.549Z,50.40
2022-08-30T20:33:24.389Z,50.70
2022-08-30T20:35:52.043Z,50.60
2022-08-30T20:38:21.636Z,50.50
2022-08-30T20:40:52.627Z,50.80
2022-08-30T20:43:23.979Z,51.00
2022-08-30T20:45:51.290Z,51.30
2022-08-30T20:48:19.684Z,51.20
2022-08-30T20:50:47.546Z,51.30
2022-08-30T20:53:15.751Z,51.50
2022-08-30T20:55:45.677Z,51.50
2022-08-30T20:58:13.992Z,51.70
2022-08-30T21:00:40.840Z,51.80
2022-08-30T21:03:26.439Z,51.90
2022-08-30T21:05:55.305Z,52.20
2022-08-30T21:08:22.354Z,52.40
2022-08-30T21:10:49.296Z,52.50
2022-08-30T21:13:16.184Z,52.60
2022-08-30T21:15:46.406Z,52.70
2022-08-30T21:18:14.490Z,52.70
2022-08-30T21:20:42.057Z,53.00
2022-08-30T21:23:09.519Z,53.00
2022-08-30T21:25:43.169Z,53.20
2022-08-30T21:28:10.755Z,54.00
2022-08-30T21:30:38.039Z,53.40
2022-08-30T21:33:07.756Z,53.60
2022-08-30T21:35:56.609Z,53.80
2022-08-30T21:38:23.764Z,53.90
2022-08-30T21:40:50.779Z,53.80
2022-08-30T21:43:17.686Z,54.10
2022-08-30T21:45:45.632Z,54.10
2022-08-30T21:48:14.237Z,54.40
2022-08-30T21:50:43.041Z,54.50
2022-08-30T21:53:10.605Z,54.60
2022-08-30T21:55:37.698Z,54.60
2022-08-30T21:58:04.661Z,54.80
2022-08-30T22:00:33.546Z,55.50
2022-08-30T22:03:00.694Z,55.00
2022-08-30T22:05:28.065Z,55.10
2022-08-30T22:07:55.029Z,55.20
2022-08-30T22:10:22.215Z,55.20
2022-08-30T22:12:49.305Z,55.30
2022-08-30T22:15:16.992Z,55.50
2022-08-30T22:17:44.211Z,55.60
2022-08-30T22:20:18.650Z,55.80
2022-08-30T22:22:45.796Z,55.90
2022-08-30T22:25:12.872Z,56.00
2022-08-30T22:27:40.022Z,56.20
2022-08-30T22:30:07.561Z,56.20
2022-08-30T22:32:34.578Z,56.30
2022-08-30T22:35:01.552Z,56.30
2022-08-30T22:37:29.113Z,56.40
2022-08-30T22:39:55.977Z,56.40
2022-08-30T22:42:22.839Z,56.50
2022-08-30T22:44:49.839Z,56.70
2022-08-30T22:47:16.702Z,56.70
2022-08-30T22:49:43.614Z,56.80
2022-08-30T22:52:10.499Z,57.00
2022-08-30T22:54:37.827Z,57.00
2022-08-30T22:57:04.981Z,57.60
2022-08-30T22:59:32.449Z,57.10
2022-08-30T23:01:59.852Z,57.20
2022-08-30T23:04:26.858Z,57.30
2022-08-30T23:06:53.798Z,57.40
2022-08-30T23:09:20.686Z,57.40
2022-08-30T23:11:47.771Z,57.60
2022-08-30T23:14:14.684Z,57.70
2022-08-30T23:16:41.607Z,57.80
2022-08-30T23:19:09.079Z,57.90
2022-08-30T23:21:36.006Z,57.80
2022-08-30T23:24:21.997Z,57.90
2022-08-30T23:27:07.464Z,58.00
2022-08-30T23:29:53.857Z,58.00
2022-08-30T23:32:39.820Z,58.10
2022-08-30T23:35:30.425Z,58.10
2022-08-30T23:38:18.812Z,58.30
2022-08-30T23:41:03.998Z,58.20
2022-08-30T23:43:49.551Z,58.30
2022-08-30T23:46:35.544Z,58.30
2022-08-30T23:49:21.477Z,58.40
2022-08-30T23:52:06.990Z,58.60
2022-08-30T23:54:57.583Z,58.60
2022-08-30T23:57:45.163Z,58.60
